RAM508 GMMN-LPPT
Flight info
| Callsign | RAM508 |
|---|---|
| Flight time | 1h 3m |
| Altitude | 36000 |
| Route | LAKAM UR722 AMSEL DCT VATZI |
| Aircraft | B738/M-SDE2E3FGHIRWXY/LB1 |
Departure
| Time | 2026-05-07 18:12 |
|---|---|
| Airport | Mohammed V International Airport (GMMN) |
Arrival
| Time | 2026-05-07 19:15 |
|---|---|
| Airport | Lisbon Humberto Delgado Airport (LPPT) |
| Time | Latitude | Longitude | Altitude | Speed | Heading |
|---|---|---|---|---|---|
| 2026-05-07 17:16 | 33.37390 | -7.58255 | 654 ft | 0 kts | 65° |
| 2026-05-07 17:38 | 33.37387 | -7.58263 | 652 ft | 4 kts | 63° |
| 2026-05-07 17:39 | 33.37374 | -7.58291 | 655 ft | 4 kts | 62° |
| 2026-05-07 17:39 | 33.37368 | -7.58317 | 656 ft | 2 kts | 96° |
| 2026-05-07 17:39 | 33.37374 | -7.58345 | 656 ft | 4 kts | 123° |
| 2026-05-07 17:39 | 33.37392 | -7.58366 | 654 ft | 4 kts | 158° |
| 2026-05-07 17:40 | 33.37402 | -7.58370 | 652 ft | 1 kts | 164° |
| 2026-05-07 17:45 | 33.37401 | -7.58370 | 652 ft | 0 kts | 164° |
| 2026-05-07 17:45 | 33.37373 | -7.58360 | 654 ft | 9 kts | 164° |
| 2026-05-07 17:45 | 33.37273 | -7.58327 | 652 ft | 21 kts | 164° |
| 2026-05-07 17:45 | 33.37131 | -7.58280 | 652 ft | 19 kts | 164° |
| 2026-05-07 17:46 | 33.37041 | -7.58250 | 655 ft | 10 kts | 164° |
| 2026-05-07 17:46 | 33.36974 | -7.58230 | 652 ft | 10 kts | 172° |
| 2026-05-07 17:46 | 33.36935 | -7.58286 | 654 ft | 10 kts | 252° |
| 2026-05-07 17:46 | 33.36915 | -7.58362 | 652 ft | 10 kts | 253° |
| 2026-05-07 17:47 | 33.36894 | -7.58443 | 653 ft | 9 kts | 243° |
| 2026-05-07 17:47 | 33.36845 | -7.58460 | 652 ft | 9 kts | 174° |
| 2026-05-07 17:47 | 33.36762 | -7.58433 | 654 ft | 15 kts | 163° |
| 2026-05-07 17:47 | 33.36661 | -7.58398 | 652 ft | 15 kts | 164° |
| 2026-05-07 17:48 | 33.36564 | -7.58365 | 652 ft | 14 kts | 164° |
| 2026-05-07 17:48 | 33.36471 | -7.58334 | 652 ft | 14 kts | 164° |
| 2026-05-07 17:48 | 33.36381 | -7.58303 | 652 ft | 13 kts | 164° |
| 2026-05-07 17:48 | 33.36295 | -7.58273 | 651 ft | 13 kts | 164° |
| 2026-05-07 17:49 | 33.36213 | -7.58245 | 653 ft | 12 kts | 164° |
| 2026-05-07 17:49 | 33.36134 | -7.58218 | 652 ft | 11 kts | 164° |
| 2026-05-07 17:49 | 33.36055 | -7.58190 | 651 ft | 13 kts | 163° |
| 2026-05-07 17:49 | 33.35961 | -7.58158 | 654 ft | 16 kts | 164° |
| 2026-05-07 17:50 | 33.35843 | -7.58118 | 651 ft | 19 kts | 164° |
| 2026-05-07 17:50 | 33.35745 | -7.58085 | 654 ft | 10 kts | 164° |
| 2026-05-07 17:50 | 33.35666 | -7.58058 | 653 ft | 13 kts | 163° |
| 2026-05-07 17:50 | 33.35568 | -7.58023 | 651 ft | 16 kts | 163° |
| 2026-05-07 17:51 | 33.35506 | -7.58003 | 652 ft | 3 kts | 165° |
| 2026-05-07 17:51 | 33.35491 | -7.57998 | 652 ft | 0 kts | 165° |
| 2026-05-07 17:52 | 33.35489 | -7.57997 | 652 ft | 1 kts | 165° |
| 2026-05-07 17:53 | 33.35465 | -7.57990 | 653 ft | 5 kts | 165° |
| 2026-05-07 17:53 | 33.35437 | -7.57980 | 652 ft | 0 kts | 164° |
| 2026-05-07 17:53 | 33.35431 | -7.57978 | 652 ft | 3 kts | 164° |
| 2026-05-07 17:54 | 33.35420 | -7.57975 | 652 ft | 0 kts | 164° |
| 2026-05-07 17:54 | 33.35409 | -7.57971 | 652 ft | 4 kts | 164° |
| 2026-05-07 17:54 | 33.35384 | -7.57962 | 652 ft | 0 kts | 163° |
| 2026-05-07 17:55 | 33.35383 | -7.57962 | 652 ft | 1 kts | 163° |
| 2026-05-07 17:55 | 33.35372 | -7.57958 | 652 ft | 4 kts | 163° |
| 2026-05-07 17:55 | 33.35358 | -7.57953 | 652 ft | 0 kts | 163° |
| 2026-05-07 17:56 | 33.35331 | -7.57945 | 653 ft | 8 kts | 170° |
| 2026-05-07 17:56 | 33.35294 | -7.57948 | 652 ft | 7 kts | 198° |
| 2026-05-07 17:57 | 33.35289 | -7.57951 | 652 ft | 0 kts | 205° |
| 2026-05-07 17:59 | 33.35280 | -7.57958 | 652 ft | 4 kts | 213° |
| 2026-05-07 17:59 | 33.35258 | -7.57992 | 652 ft | 5 kts | 246° |
| 2026-05-07 17:59 | 33.35253 | -7.58011 | 654 ft | 0 kts | 253° |
| 2026-05-07 18:02 | 33.35252 | -7.58014 | 652 ft | 0 kts | 253° |
| 2026-05-07 18:04 | 33.35252 | -7.58015 | 652 ft | 1 kts | 253° |
| 2026-05-07 18:04 | 33.35246 | -7.58040 | 652 ft | 5 kts | 253° |
| 2026-05-07 18:05 | 33.35241 | -7.58060 | 653 ft | 0 kts | 253° |
| 2026-05-07 18:09 | 33.35239 | -7.58069 | 654 ft | 3 kts | 253° |
| 2026-05-07 18:09 | 33.35227 | -7.58117 | 652 ft | 10 kts | 253° |
| 2026-05-07 18:09 | 33.35204 | -7.58206 | 653 ft | 11 kts | 253° |
| 2026-05-07 18:09 | 33.35202 | -7.58248 | 653 ft | 4 kts | 297° |
| 2026-05-07 18:10 | 33.35222 | -7.58264 | 655 ft | 3 kts | 339° |
| 2026-05-07 18:10 | 33.35226 | -7.58265 | 655 ft | 0 kts | 342° |
| 2026-05-07 18:11 | 33.35340 | -7.58303 | 651 ft | 49 kts | 344° |
| 2026-05-07 18:11 | 33.35913 | -7.58500 | 646 ft | 119 kts | 344° |
| 2026-05-07 18:12 | 33.36858 | -7.58813 | 812 ft | 157 kts | 345° |
| 2026-05-07 18:12 | 33.37860 | -7.59164 | 1813 ft | 145 kts | 346° |
| 2026-05-07 18:12 | 33.38866 | -7.59547 | 2483 ft | 156 kts | 339° |
| 2026-05-07 18:12 | 33.39889 | -7.60153 | 3102 ft | 171 kts | 332° |
| 2026-05-07 18:13 | 33.41032 | -7.60857 | 3450 ft | 199 kts | 341° |
| 2026-05-07 18:13 | 33.42475 | -7.61159 | 3720 ft | 220 kts | 352° |
| 2026-05-07 18:13 | 33.44064 | -7.61382 | 3988 ft | 243 kts | 352° |
| 2026-05-07 18:13 | 33.45800 | -7.61640 | 4387 ft | 262 kts | 351° |
| 2026-05-07 18:14 | 33.47668 | -7.61928 | 5136 ft | 271 kts | 351° |
| 2026-05-07 18:14 | 33.49564 | -7.62227 | 5892 ft | 279 kts | 351° |
| 2026-05-07 18:14 | 33.51517 | -7.62540 | 6655 ft | 285 kts | 351° |
| 2026-05-07 18:14 | 33.53467 | -7.62855 | 7462 ft | 289 kts | 350° |
| 2026-05-07 18:15 | 33.55477 | -7.63183 | 8251 ft | 294 kts | 349° |
| 2026-05-07 18:15 | 33.57528 | -7.63521 | 9021 ft | 300 kts | 349° |
| 2026-05-07 18:15 | 33.59617 | -7.63867 | 9797 ft | 306 kts | 348° |
| 2026-05-07 18:15 | 33.61758 | -7.64224 | 10333 ft | 319 kts | 348° |
| 2026-05-07 18:16 | 33.64039 | -7.64609 | 10513 ft | 344 kts | 349° |
| 2026-05-07 18:16 | 33.66474 | -7.65018 | 10919 ft | 358 kts | 349° |
| 2026-05-07 18:16 | 33.68968 | -7.65435 | 11580 ft | 364 kts | 349° |
| 2026-05-07 18:16 | 33.71489 | -7.65854 | 12340 ft | 367 kts | 349° |
| 2026-05-07 18:17 | 33.74006 | -7.66273 | 13083 ft | 371 kts | 349° |
| 2026-05-07 18:17 | 33.76583 | -7.66703 | 13815 ft | 376 kts | 349° |
| 2026-05-07 18:17 | 33.79190 | -7.67140 | 14486 ft | 378 kts | 348° |
| 2026-05-07 18:17 | 33.81810 | -7.67579 | 14846 ft | 380 kts | 348° |
| 2026-05-07 18:18 | 33.84437 | -7.68020 | 14945 ft | 384 kts | 348° |
| 2026-05-07 18:18 | 33.87079 | -7.68463 | 14948 ft | 382 kts | 348° |
| 2026-05-07 18:18 | 33.89712 | -7.68905 | 14954 ft | 381 kts | 348° |
| 2026-05-07 18:18 | 33.92342 | -7.69347 | 14959 ft | 381 kts | 348° |
| 2026-05-07 18:19 | 33.94981 | -7.69792 | 15016 ft | 388 kts | 348° |
| 2026-05-07 18:19 | 33.97676 | -7.70248 | 15682 ft | 391 kts | 348° |
| 2026-05-07 18:19 | 34.00337 | -7.70697 | 16485 ft | 392 kts | 348° |
| 2026-05-07 18:19 | 34.03025 | -7.71150 | 17217 ft | 395 kts | 348° |
| 2026-05-07 18:20 | 34.05754 | -7.71612 | 17894 ft | 399 kts | 347° |
| 2026-05-07 18:20 | 34.08530 | -7.72081 | 18539 ft | 403 kts | 347° |
| 2026-05-07 18:20 | 34.11326 | -7.72553 | 19139 ft | 407 kts | 347° |
| 2026-05-07 18:20 | 34.14143 | -7.73030 | 19740 ft | 411 kts | 347° |
| 2026-05-07 18:21 | 34.16990 | -7.73512 | 20347 ft | 414 kts | 347° |
| 2026-05-07 18:21 | 34.19869 | -7.73947 | 20920 ft | 420 kts | 349° |
| 2026-05-07 18:21 | 34.22802 | -7.74220 | 21485 ft | 425 kts | 351° |
| 2026-05-07 18:21 | 34.25769 | -7.74413 | 22027 ft | 430 kts | 352° |
| 2026-05-07 18:22 | 34.28733 | -7.74582 | 22573 ft | 433 kts | 352° |
| 2026-05-07 18:22 | 34.30745 | -7.74698 | 22926 ft | 436 kts | 352° |
| 2026-05-07 18:22 | 34.34818 | -7.74948 | 23612 ft | 441 kts | 351° |
| 2026-05-07 18:22 | 34.37897 | -7.75151 | 24065 ft | 444 kts | 351° |
| 2026-05-07 18:23 | 34.40992 | -7.75362 | 24546 ft | 445 kts | 351° |
| 2026-05-07 18:23 | 34.44090 | -7.75578 | 25016 ft | 447 kts | 351° |
| 2026-05-07 18:23 | 34.47171 | -7.75795 | 25462 ft | 450 kts | 351° |
| 2026-05-07 18:23 | 34.50303 | -7.76016 | 25899 ft | 452 kts | 351° |
| 2026-05-07 18:24 | 34.53453 | -7.76239 | 26329 ft | 455 kts | 350° |
| 2026-05-07 18:24 | 34.56627 | -7.76462 | 26755 ft | 457 kts | 350° |
| 2026-05-07 18:24 | 34.59815 | -7.76687 | 27167 ft | 460 kts | 350° |
| 2026-05-07 18:24 | 34.63015 | -7.76912 | 27566 ft | 462 kts | 350° |
| 2026-05-07 18:25 | 34.66248 | -7.77140 | 27969 ft | 464 kts | 350° |
| 2026-05-07 18:25 | 34.69475 | -7.77367 | 28354 ft | 467 kts | 350° |
| 2026-05-07 18:25 | 34.72723 | -7.77597 | 28738 ft | 469 kts | 350° |
| 2026-05-07 18:25 | 34.75986 | -7.77834 | 29108 ft | 471 kts | 350° |
| 2026-05-07 18:26 | 34.79245 | -7.78095 | 29465 ft | 473 kts | 349° |
| 2026-05-07 18:26 | 34.82578 | -7.78375 | 29829 ft | 475 kts | 349° |
| 2026-05-07 18:26 | 34.85878 | -7.78657 | 30155 ft | 477 kts | 349° |
| 2026-05-07 18:26 | 34.89199 | -7.78939 | 30442 ft | 479 kts | 349° |
| 2026-05-07 18:27 | 34.92475 | -7.79215 | 30712 ft | 481 kts | 349° |
| 2026-05-07 18:27 | 34.95823 | -7.79496 | 30993 ft | 482 kts | 349° |
| 2026-05-07 18:27 | 34.99184 | -7.79775 | 31349 ft | 482 kts | 349° |
| 2026-05-07 18:27 | 35.01390 | -7.80006 | 31613 ft | 477 kts | 346° |
| 2026-05-07 18:28 | 35.05646 | -7.81251 | 32155 ft | 464 kts | 335° |
| 2026-05-07 18:28 | 35.08703 | -7.82484 | 32544 ft | 462 kts | 334° |
| 2026-05-07 18:28 | 35.11747 | -7.83752 | 32882 ft | 462 kts | 334° |
| 2026-05-07 18:28 | 35.14792 | -7.85023 | 33223 ft | 462 kts | 334° |
| 2026-05-07 18:29 | 35.17839 | -7.86283 | 33592 ft | 461 kts | 334° |
| 2026-05-07 18:29 | 35.20878 | -7.87524 | 33972 ft | 460 kts | 334° |
| 2026-05-07 18:29 | 35.23914 | -7.88753 | 34278 ft | 459 kts | 334° |
| 2026-05-07 18:29 | 35.26898 | -7.89954 | 34587 ft | 459 kts | 334° |
| 2026-05-07 18:30 | 35.29976 | -7.91189 | 34902 ft | 458 kts | 334° |
| 2026-05-07 18:30 | 35.32962 | -7.92386 | 35208 ft | 457 kts | 334° |
| 2026-05-07 18:30 | 35.35980 | -7.93596 | 35518 ft | 456 kts | 334° |
| 2026-05-07 18:30 | 35.38985 | -7.94803 | 35818 ft | 455 kts | 333° |
| 2026-05-07 18:31 | 35.41999 | -7.96015 | 35960 ft | 458 kts | 333° |
| 2026-05-07 18:31 | 35.48091 | -7.98475 | 35950 ft | 460 kts | 333° |
| 2026-05-07 18:32 | 35.54144 | -8.00911 | 35943 ft | 454 kts | 333° |
| 2026-05-07 18:32 | 35.60119 | -8.03321 | 35949 ft | 449 kts | 333° |
| 2026-05-07 18:33 | 35.66033 | -8.05713 | 35953 ft | 446 kts | 333° |
| 2026-05-07 18:33 | 35.71931 | -8.08108 | 35954 ft | 446 kts | 333° |
| 2026-05-07 18:34 | 35.77788 | -8.10488 | 35955 ft | 446 kts | 333° |
| 2026-05-07 18:34 | 35.83685 | -8.12887 | 35957 ft | 447 kts | 333° |
| 2026-05-07 18:35 | 35.89602 | -8.15298 | 35953 ft | 448 kts | 333° |
| 2026-05-07 18:35 | 35.95526 | -8.17714 | 35951 ft | 449 kts | 333° |
| 2026-05-07 18:36 | 36.01466 | -8.20142 | 35955 ft | 450 kts | 333° |
| 2026-05-07 18:36 | 36.07384 | -8.22563 | 35952 ft | 451 kts | 333° |
| 2026-05-07 18:37 | 36.13357 | -8.25011 | 35950 ft | 452 kts | 333° |
| 2026-05-07 18:37 | 36.19338 | -8.27466 | 35951 ft | 453 kts | 333° |
| 2026-05-07 18:38 | 36.25321 | -8.29926 | 35948 ft | 454 kts | 333° |
| 2026-05-07 18:38 | 36.31321 | -8.32396 | 35952 ft | 454 kts | 333° |
| 2026-05-07 18:39 | 36.37317 | -8.34869 | 35954 ft | 454 kts | 333° |
| 2026-05-07 18:39 | 36.43277 | -8.37331 | 35951 ft | 454 kts | 333° |
| 2026-05-07 18:40 | 36.49279 | -8.39815 | 35947 ft | 454 kts | 333° |
| 2026-05-07 18:40 | 36.55277 | -8.42302 | 35943 ft | 454 kts | 333° |
| 2026-05-07 18:41 | 36.61271 | -8.44790 | 35939 ft | 454 kts | 333° |
| 2026-05-07 18:41 | 36.67226 | -8.47260 | 35925 ft | 439 kts | 333° |
| 2026-05-07 18:41 | 36.70043 | -8.48420 | 35920 ft | 425 kts | 332° |
| 2026-05-07 18:42 | 36.72844 | -8.49576 | 35895 ft | 411 kts | 332° |
| 2026-05-07 18:42 | 36.75475 | -8.50665 | 35634 ft | 398 kts | 332° |
| 2026-05-07 18:42 | 36.78089 | -8.51757 | 35192 ft | 398 kts | 332° |
| 2026-05-07 18:42 | 36.80760 | -8.52892 | 34776 ft | 412 kts | 332° |
| 2026-05-07 18:43 | 36.83517 | -8.54067 | 34345 ft | 424 kts | 332° |
| 2026-05-07 18:43 | 36.85382 | -8.54858 | 34060 ft | 431 kts | 333° |
| 2026-05-07 18:43 | 36.88251 | -8.56069 | 33587 ft | 438 kts | 333° |
| 2026-05-07 18:43 | 36.91139 | -8.57276 | 33081 ft | 437 kts | 333° |
| 2026-05-07 18:44 | 36.94018 | -8.58474 | 32584 ft | 433 kts | 334° |
| 2026-05-07 18:44 | 36.97797 | -8.60047 | 31944 ft | 429 kts | 334° |
| 2026-05-07 18:44 | 37.00643 | -8.61239 | 31480 ft | 436 kts | 334° |
| 2026-05-07 18:44 | 37.02610 | -8.62072 | 31187 ft | 449 kts | 334° |
| 2026-05-07 18:45 | 37.05610 | -8.63344 | 30674 ft | 457 kts | 335° |
| 2026-05-07 18:45 | 37.08596 | -8.64600 | 30176 ft | 456 kts | 335° |
| 2026-05-07 18:45 | 37.10625 | -8.65451 | 29806 ft | 454 kts | 335° |
| 2026-05-07 18:45 | 37.14579 | -8.67109 | 29045 ft | 450 kts | 336° |
| 2026-05-07 18:46 | 37.17541 | -8.68353 | 28483 ft | 447 kts | 336° |
| 2026-05-07 18:46 | 37.20479 | -8.69591 | 27936 ft | 444 kts | 336° |
| 2026-05-07 18:46 | 37.23398 | -8.70824 | 27388 ft | 441 kts | 336° |
| 2026-05-07 18:46 | 37.26300 | -8.72051 | 26861 ft | 438 kts | 336° |
| 2026-05-07 18:47 | 37.29173 | -8.73268 | 26311 ft | 435 kts | 336° |
| 2026-05-07 18:47 | 37.32039 | -8.74483 | 25773 ft | 432 kts | 336° |
| 2026-05-07 18:47 | 37.34880 | -8.75687 | 25259 ft | 429 kts | 336° |
| 2026-05-07 18:47 | 37.37682 | -8.76876 | 25071 ft | 425 kts | 336° |
| 2026-05-07 18:48 | 37.40487 | -8.78068 | 24986 ft | 424 kts | 336° |
| 2026-05-07 18:48 | 37.43229 | -8.79233 | 24941 ft | 414 kts | 336° |
| 2026-05-07 18:48 | 37.45916 | -8.80372 | 24889 ft | 400 kts | 336° |
| 2026-05-07 18:48 | 37.48529 | -8.81482 | 24558 ft | 395 kts | 336° |
| 2026-05-07 18:49 | 37.51139 | -8.82598 | 24045 ft | 396 kts | 336° |
| 2026-05-07 18:49 | 37.53749 | -8.83715 | 23549 ft | 396 kts | 336° |
| 2026-05-07 18:49 | 37.56362 | -8.84831 | 23058 ft | 394 kts | 336° |
| 2026-05-07 18:49 | 37.58948 | -8.85934 | 22628 ft | 390 kts | 336° |
| 2026-05-07 18:50 | 37.61516 | -8.87015 | 22192 ft | 388 kts | 337° |
| 2026-05-07 18:50 | 37.64079 | -8.88061 | 21737 ft | 385 kts | 338° |
| 2026-05-07 18:50 | 37.66629 | -8.89089 | 21291 ft | 383 kts | 338° |
| 2026-05-07 18:50 | 37.69164 | -8.90111 | 20859 ft | 381 kts | 338° |
| 2026-05-07 18:51 | 37.71663 | -8.91122 | 20442 ft | 379 kts | 338° |
| 2026-05-07 18:51 | 37.74170 | -8.92139 | 20033 ft | 376 kts | 338° |
| 2026-05-07 18:51 | 37.76658 | -8.93151 | 19632 ft | 374 kts | 338° |
| 2026-05-07 18:51 | 37.79130 | -8.94158 | 19265 ft | 371 kts | 338° |
| 2026-05-07 18:52 | 37.81584 | -8.95160 | 18880 ft | 368 kts | 337° |
| 2026-05-07 18:52 | 37.84023 | -8.96156 | 18398 ft | 370 kts | 337° |
| 2026-05-07 18:52 | 37.86451 | -8.97150 | 17843 ft | 371 kts | 338° |
| 2026-05-07 18:52 | 37.88914 | -8.98160 | 17275 ft | 373 kts | 338° |
| 2026-05-07 18:53 | 37.91361 | -8.99160 | 16690 ft | 365 kts | 338° |
| 2026-05-07 18:53 | 37.93758 | -9.00140 | 16222 ft | 357 kts | 339° |
| 2026-05-07 18:53 | 37.96118 | -9.01107 | 15753 ft | 356 kts | 339° |
| 2026-05-07 18:53 | 37.98452 | -9.02064 | 15540 ft | 347 kts | 339° |
| 2026-05-07 18:54 | 38.00713 | -9.02993 | 15458 ft | 335 kts | 339° |
| 2026-05-07 18:54 | 38.02908 | -9.03914 | 15222 ft | 330 kts | 338° |
| 2026-05-07 18:54 | 38.05078 | -9.04835 | 14844 ft | 330 kts | 339° |
| 2026-05-07 18:54 | 38.07256 | -9.05760 | 14475 ft | 329 kts | 339° |
| 2026-05-07 18:55 | 38.09403 | -9.06670 | 14146 ft | 328 kts | 339° |
| 2026-05-07 18:55 | 38.11563 | -9.07584 | 13818 ft | 327 kts | 340° |
| 2026-05-07 18:55 | 38.13716 | -9.08495 | 13494 ft | 324 kts | 340° |
| 2026-05-07 18:55 | 38.15879 | -9.09141 | 13343 ft | 317 kts | 358° |
| 2026-05-07 18:56 | 38.18004 | -9.08721 | 13212 ft | 303 kts | 22° |
| 2026-05-07 18:56 | 38.19798 | -9.07428 | 12827 ft | 294 kts | 44° |
| 2026-05-07 18:56 | 38.21209 | -9.05578 | 12361 ft | 290 kts | 51° |
| 2026-05-07 18:56 | 38.22522 | -9.03644 | 11897 ft | 288 kts | 52° |
| 2026-05-07 18:57 | 38.23818 | -9.01710 | 11460 ft | 286 kts | 52° |
| 2026-05-07 18:57 | 38.25110 | -8.99801 | 11031 ft | 283 kts | 51° |
| 2026-05-07 18:57 | 38.26398 | -8.97917 | 10612 ft | 281 kts | 51° |
| 2026-05-07 18:57 | 38.27661 | -8.96077 | 10214 ft | 278 kts | 51° |
| 2026-05-07 18:58 | 38.28930 | -8.94231 | 9789 ft | 276 kts | 51° |
| 2026-05-07 18:58 | 38.30314 | -8.92547 | 9306 ft | 278 kts | 32° |
| 2026-05-07 18:58 | 38.32140 | -8.91795 | 8821 ft | 278 kts | 2° |
| 2026-05-07 18:58 | 38.34015 | -8.92222 | 8375 ft | 273 kts | 333° |
| 2026-05-07 18:59 | 38.35553 | -8.93571 | 7964 ft | 266 kts | 314° |
| 2026-05-07 18:59 | 38.36877 | -8.95191 | 7555 ft | 263 kts | 313° |
| 2026-05-07 18:59 | 38.38181 | -8.96825 | 7212 ft | 263 kts | 311° |
| 2026-05-07 18:59 | 38.39114 | -8.98746 | 7009 ft | 251 kts | 282° |
| 2026-05-07 19:00 | 38.39236 | -9.00888 | 6953 ft | 239 kts | 258° |
| 2026-05-07 19:00 | 38.38726 | -9.02857 | 6930 ft | 232 kts | 238° |
| 2026-05-07 19:00 | 38.37874 | -9.04588 | 6937 ft | 229 kts | 234° |
| 2026-05-07 19:00 | 38.36985 | -9.06257 | 6931 ft | 228 kts | 234° |
| 2026-05-07 19:01 | 38.36096 | -9.07931 | 6930 ft | 228 kts | 234° |
| 2026-05-07 19:01 | 38.35223 | -9.09587 | 6939 ft | 228 kts | 234° |
| 2026-05-07 19:01 | 38.34504 | -9.11383 | 6936 ft | 230 kts | 252° |
| 2026-05-07 19:01 | 38.34168 | -9.13373 | 6937 ft | 229 kts | 257° |
| 2026-05-07 19:02 | 38.33889 | -9.15361 | 6947 ft | 230 kts | 257° |
| 2026-05-07 19:02 | 38.33598 | -9.17386 | 6951 ft | 235 kts | 257° |
| 2026-05-07 19:02 | 38.33289 | -9.19456 | 6949 ft | 238 kts | 256° |
| 2026-05-07 19:02 | 38.32976 | -9.21518 | 6940 ft | 236 kts | 256° |
| 2026-05-07 19:03 | 38.32713 | -9.23580 | 6933 ft | 237 kts | 267° |
| 2026-05-07 19:03 | 38.32960 | -9.25649 | 6946 ft | 236 kts | 279° |
| 2026-05-07 19:03 | 38.33301 | -9.27701 | 6942 ft | 237 kts | 278° |
| 2026-05-07 19:03 | 38.33633 | -9.29758 | 6931 ft | 236 kts | 278° |
| 2026-05-07 19:04 | 38.33960 | -9.31808 | 6947 ft | 236 kts | 278° |
| 2026-05-07 19:04 | 38.34285 | -9.33856 | 6933 ft | 236 kts | 278° |
| 2026-05-07 19:04 | 38.34608 | -9.35878 | 6936 ft | 236 kts | 281° |
| 2026-05-07 19:04 | 38.35308 | -9.37800 | 6946 ft | 240 kts | 302° |
| 2026-05-07 19:05 | 38.36262 | -9.39549 | 6944 ft | 241 kts | 301° |
| 2026-05-07 19:05 | 38.37206 | -9.41315 | 6940 ft | 241 kts | 301° |
| 2026-05-07 19:05 | 38.38134 | -9.43065 | 6943 ft | 241 kts | 301° |
| 2026-05-07 19:05 | 38.39072 | -9.44842 | 6942 ft | 242 kts | 301° |
| 2026-05-07 19:06 | 38.40105 | -9.46526 | 6922 ft | 244 kts | 320° |
| 2026-05-07 19:06 | 38.43258 | -9.46947 | 6937 ft | 230 kts | 20° |
| 2026-05-07 19:06 | 38.44596 | -9.45899 | 6939 ft | 225 kts | 43° |
| 2026-05-07 19:07 | 38.45663 | -9.44439 | 6939 ft | 226 kts | 50° |
| 2026-05-07 19:07 | 38.46667 | -9.42904 | 6857 ft | 223 kts | 51° |
| 2026-05-07 19:07 | 38.47653 | -9.41378 | 6466 ft | 228 kts | 51° |
| 2026-05-07 19:07 | 38.48695 | -9.39769 | 6020 ft | 240 kts | 50° |
| 2026-05-07 19:08 | 38.49790 | -9.38085 | 5531 ft | 251 kts | 49° |
| 2026-05-07 19:08 | 38.50901 | -9.36385 | 5059 ft | 254 kts | 49° |
| 2026-05-07 19:08 | 38.52027 | -9.34665 | 4573 ft | 249 kts | 48° |
| 2026-05-07 19:08 | 38.53127 | -9.32988 | 4130 ft | 242 kts | 47° |
| 2026-05-07 19:09 | 38.54189 | -9.31370 | 4043 ft | 234 kts | 47° |
| 2026-05-07 19:09 | 38.55231 | -9.29785 | 4035 ft | 235 kts | 47° |
| 2026-05-07 19:09 | 38.56296 | -9.28166 | 4026 ft | 236 kts | 47° |
| 2026-05-07 19:09 | 38.57319 | -9.26605 | 4003 ft | 219 kts | 47° |
| 2026-05-07 19:10 | 38.58257 | -9.25174 | 3990 ft | 201 kts | 47° |
| 2026-05-07 19:10 | 38.59239 | -9.23951 | 3987 ft | 194 kts | 27° |
| 2026-05-07 19:10 | 38.60436 | -9.23191 | 3831 ft | 193 kts | 22° |
| 2026-05-07 19:10 | 38.61626 | -9.22485 | 3592 ft | 185 kts | 20° |
| 2026-05-07 19:11 | 38.62785 | -9.21843 | 3352 ft | 181 kts | 19° |
| 2026-05-07 19:11 | 38.63940 | -9.21217 | 3099 ft | 179 kts | 18° |
| 2026-05-07 19:11 | 38.65074 | -9.20608 | 2833 ft | 175 kts | 19° |
| 2026-05-07 19:11 | 38.66195 | -9.20004 | 2598 ft | 173 kts | 19° |
| 2026-05-07 19:12 | 38.67270 | -9.19426 | 2372 ft | 166 kts | 18° |
| 2026-05-07 19:12 | 38.68335 | -9.18855 | 2143 ft | 165 kts | 17° |
| 2026-05-07 19:12 | 38.69382 | -9.18293 | 1929 ft | 156 kts | 19° |
| 2026-05-07 19:12 | 38.70336 | -9.17779 | 1715 ft | 143 kts | 17° |
| 2026-05-07 19:13 | 38.71230 | -9.17299 | 1522 ft | 137 kts | 17° |
| 2026-05-07 19:13 | 38.72107 | -9.16827 | 1355 ft | 142 kts | 16° |
| 2026-05-07 19:13 | 38.73021 | -9.16335 | 1160 ft | 140 kts | 16° |
| 2026-05-07 19:13 | 38.73919 | -9.15855 | 944 ft | 140 kts | 17° |
| 2026-05-07 19:14 | 38.74815 | -9.15374 | 776 ft | 140 kts | 19° |
| 2026-05-07 19:14 | 38.75715 | -9.14887 | 597 ft | 140 kts | 18° |
| 2026-05-07 19:14 | 38.76601 | -9.14396 | 381 ft | 138 kts | 17° |
| 2026-05-07 19:14 | 38.77455 | -9.13961 | 361 ft | 117 kts | 20° |
| 2026-05-07 19:15 | 38.78066 | -9.13632 | 365 ft | 73 kts | 23° |
| 2026-05-07 19:15 | 38.78401 | -9.13450 | 367 ft | 37 kts | 22° |
| 2026-05-07 19:15 | 38.78537 | -9.13336 | 360 ft | 16 kts | 74° |
| 2026-05-07 19:15 | 38.78500 | -9.13239 | 360 ft | 9 kts | 155° |
| 2026-05-07 19:16 | 38.78483 | -9.13231 | 363 ft | 0 kts | 163° |
| 2026-05-07 19:16 | 38.78457 | -9.13223 | 361 ft | 10 kts | 168° |
| 2026-05-07 19:16 | 38.78374 | -9.13235 | 360 ft | 13 kts | 202° |
| 2026-05-07 19:16 | 38.78313 | -9.13269 | 362 ft | 9 kts | 204° |
| 2026-05-07 19:17 | 38.78278 | -9.13287 | 362 ft | 3 kts | 202° |
| 2026-05-07 19:17 | 38.78260 | -9.13298 | 364 ft | 3 kts | 204° |
| 2026-05-07 19:17 | 38.78231 | -9.13313 | 359 ft | 7 kts | 204° |
| 2026-05-07 19:17 | 38.78175 | -9.13344 | 359 ft | 8 kts | 202° |
| 2026-05-07 19:18 | 38.78144 | -9.13360 | 358 ft | 4 kts | 202° |
| 2026-05-07 19:18 | 38.78117 | -9.13373 | 361 ft | 4 kts | 201° |
| 2026-05-07 19:18 | 38.78090 | -9.13388 | 359 ft | 4 kts | 202° |
| 2026-05-07 19:18 | 38.78059 | -9.13404 | 358 ft | 7 kts | 202° |
| 2026-05-07 19:19 | 38.77970 | -9.13409 | 359 ft | 17 kts | 156° |